Time;durP1;ratioP1;P1;durP2;ratioP2;P2;SDS_P1;SDS_P2;PMS_P1;PMS_P2;Temp;Humidity;BMP_temperature;BMP_pressure;BME280_temperature;BME280_humidity;BME280_pressure;Samples;Min_cycle;Max_cycle;Signal;HPM_P1;HPM_P2
2023/05/06 00:02:07;;;;;;;3.33;3.00;;;15.30;82.90;;;;;;5017993;28;20041;-64
2023/05/06 00:04:33;;;;;;;2.80;2.60;;;15.30;82.90;;;;;;5016836;28;20080;-64
2023/05/06 00:06:58;;;;;;;3.13;2.80;;;15.30;82.90;;;;;;5018134;28;20092;-64
2023/05/06 00:09:24;;;;;;;3.50;3.20;;;15.30;82.90;;;;;;5015075;28;20045;-64
2023/05/06 00:11:50;;;;;;;3.10;2.75;;;15.30;82.90;;;;;;5016824;28;20442;-64
2023/05/06 00:14:16;;;;;;;3.17;2.88;;;15.30;82.90;;;;;;5017007;28;20474;-64
2023/05/06 00:16:41;;;;;;;3.45;3.15;;;15.30;82.80;;;;;;5016927;28;20022;-64
2023/05/06 00:19:07;;;;;;;3.72;3.17;;;15.30;82.80;;;;;;5017532;28;20494;-64
2023/05/06 00:21:32;;;;;;;6.38;3.45;;;15.20;82.80;;;;;;5017368;28;20273;-64
2023/05/06 00:23:58;;;;;;;3.58;3.10;;;15.20;82.90;;;;;;5016492;28;20041;-65
2023/05/06 00:26:24;;;;;;;4.70;3.35;;;15.10;83.10;;;;;;5016136;28;20975;-64
2023/05/06 00:28:49;;;;;;;3.67;3.38;;;15.10;84.10;;;;;;5016982;28;20037;-65
2023/05/06 00:31:15;;;;;;;6.72;3.75;;;15.10;83.80;;;;;;5015018;28;20038;-64
2023/05/06 00:33:40;;;;;;;4.07;3.67;;;15.00;84.00;;;;;;5014800;28;20107;-64
2023/05/06 00:36:06;;;;;;;4.05;3.70;;;15.00;84.40;;;;;;5016931;28;20245;-64
2023/05/06 00:38:32;;;;;;;4.10;3.67;;;14.90;84.50;;;;;;5016270;28;20037;-64
2023/05/06 00:40:57;;;;;;;4.72;3.97;;;14.90;84.60;;;;;;5017436;28;20421;-65
2023/05/06 00:43:23;;;;;;;3.90;3.60;;;14.90;84.70;;;;;;5015215;28;20045;-64
2023/05/06 00:45:50;;;;;;;4.28;3.33;;;14.90;84.70;;;;;;5017952;28;20038;-64
2023/05/06 00:48:16;;;;;;;3.85;3.55;;;14.90;84.80;;;;;;5019177;28;20326;-64
2023/05/06 00:50:43;;;;;;;4.45;3.50;;;14.90;84.70;;;;;;5015862;28;20476;-64
2023/05/06 00:53:09;;;;;;;4.03;3.60;;;14.90;84.70;;;;;;5016018;28;20504;-65
2023/05/06 00:55:36;;;;;;;3.85;3.55;;;14.90;84.60;;;;;;5016601;28;20037;-64
2023/05/06 00:58:02;;;;;;;4.95;3.70;;;14.90;84.60;;;;;;5016874;28;20053;-64
2023/05/06 01:00:28;;;;;;;4.35;3.85;;;14.90;84.60;;;;;;5017521;28;20133;-64
2023/05/06 01:02:53;;;;;;;4.22;3.90;;;14.90;84.60;;;;;;5022910;28;20124;-64
2023/05/06 01:05:21;;;;;;;4.80;3.80;;;14.90;84.60;;;;;;5017349;28;20112;-64
2023/05/06 01:07:59;;;;;;;4.78;4.05;;;14.90;84.70;;;;;;5017373;28;20029;-64
2023/05/06 01:11:01;;;;;;;3.90;3.60;;;14.90;84.70;;;;;;5016585;28;20084;-64
2023/05/06 01:13:48;;;;;;;6.82;3.83;;;15.00;85.50;;;;;;5005524;28;20038;-64
2023/05/06 01:16:17;;;;;;;3.80;3.50;;;14.90;85.50;;;;;;5017076;28;20030;-64
2023/05/06 01:18:44;;;;;;;4.00;3.65;;;15.00;84.60;;;;;;5018225;28;20025;-64
2023/05/06 01:21:11;;;;;;;3.72;3.38;;;15.00;84.50;;;;;;5018457;28;20119;-64
2023/05/06 01:23:56;;;;;;;4.00;3.65;;;15.00;84.50;;;;;;5016841;28;20045;-64
2023/05/06 01:26:23;;;;;;;;;;;15.00;85.10;;;;;;5017913;28;20441;-64
2023/05/06 01:28:48;;;;;;;3.53;3.22;;;15.10;85.00;;;;;;5015091;28;19913;-64
2023/05/06 01:31:22;;;;;;;4.20;3.53;;;15.10;83.90;;;;;;5016091;28;20041;-64
2023/05/06 01:34:11;;;;;;;4.47;3.80;;;15.10;84.30;;;;;;5017651;28;20034;-64
2023/05/06 01:36:40;;;;;;;4.18;3.78;;;15.00;85.00;;;;;;5017376;28;20060;-64
2023/05/06 01:39:15;;;;;;;4.03;3.63;;;15.00;84.40;;;;;;5017662;28;20054;-64
2023/05/06 01:41:42;;;;;;;3.92;3.58;;;15.00;84.70;;;;;;5017543;28;20041;-64
2023/05/06 01:44:07;;;;;;;3.90;3.60;;;15.00;84.50;;;;;;5016831;28;20653;-64
2023/05/06 01:46:34;;;;;;;4.40;3.92;;;15.00;84.50;;;;;;5014893;28;20039;-64
2023/05/06 01:49:05;;;;;;;4.15;3.75;;;15.00;84.60;;;;;;5017459;28;20052;-64
2023/05/06 01:51:34;;;;;;;4.50;4.00;;;14.90;84.70;;;;;;5018210;28;20052;-64
2023/05/06 01:54:00;;;;;;;4.43;4.03;;;14.90;85.00;;;;;;5017305;28;20032;-64
2023/05/06 01:56:29;;;;;;;4.28;3.88;;;14.90;84.80;;;;;;5017268;28;20037;-64
2023/05/06 01:58:58;;;;;;;5.70;3.58;;;14.80;85.00;;;;;;5016008;28;20049;-64
2023/05/06 02:01:24;;;;;;;5.07;3.92;;;14.80;85.20;;;;;;5017898;28;20310;-64
2023/05/06 02:03:50;;;;;;;4.13;3.75;;;14.80;85.40;;;;;;5016661;28;20092;-64
2023/05/06 02:06:16;;;;;;;3.97;3.67;;;14.90;85.70;;;;;;5016759;28;20037;-64
2023/05/06 02:08:41;;;;;;;3.75;3.45;;;14.90;85.50;;;;;;5016188;28;20030;-64
2023/05/06 02:11:07;;;;;;;3.50;3.03;;;14.90;85.20;;;;;;5019394;28;20034;-64
2023/05/06 02:13:33;;;;;;;4.78;3.38;;;14.90;84.90;;;;;;5016760;28;20033;-64
2023/05/06 02:15:58;;;;;;;3.72;3.40;;;14.90;84.60;;;;;;5016663;28;20068;-64
2023/05/06 02:18:24;;;;;;;3.63;3.33;;;14.80;84.50;;;;;;5017048;28;20042;-64
2023/05/06 02:20:50;;;;;;;3.80;3.50;;;14.80;84.50;;;;;;5017473;28;20125;-64
2023/05/06 02:23:16;;;;;;;5.43;3.40;;;14.80;84.50;;;;;;5016653;28;20044;-64
2023/05/06 02:25:41;;;;;;;5.75;3.30;;;14.70;84.40;;;;;;5017325;28;20088;-64
2023/05/06 02:28:07;;;;;;;3.70;3.40;;;14.70;84.50;;;;;;5016541;28;20042;-64
2023/05/06 02:30:33;;;;;;;3.97;3.58;;;14.70;84.50;;;;;;5014431;28;20033;-64
2023/05/06 02:32:59;;;;;;;3.28;2.97;;;14.60;84.50;;;;;;5015770;28;20492;-64
2023/05/06 02:35:24;;;;;;;3.55;3.25;;;14.60;84.70;;;;;;5011815;28;20041;-64
2023/05/06 02:37:50;;;;;;;3.88;3.42;;;14.60;84.80;;;;;;5016404;28;20132;-64
2023/05/06 02:40:15;;;;;;;3.58;3.15;;;14.60;84.90;;;;;;5015470;28;20087;-64
2023/05/06 02:42:41;;;;;;;3.20;3.00;;;14.60;84.90;;;;;;5016428;28;20042;-64
2023/05/06 02:45:07;;;;;;;3.58;3.28;;;14.60;85.00;;;;;;5015030;28;20058;-64
2023/05/06 02:47:32;;;;;;;3.63;3.33;;;14.50;85.00;;;;;;5015561;28;20038;-64
2023/05/06 02:49:58;;;;;;;4.25;3.80;;;14.50;85.20;;;;;;5016775;28;20044;-64
2023/05/06 02:52:24;;;;;;;3.97;3.60;;;14.50;85.00;;;;;;5015566;28;20066;-64
2023/05/06 02:54:49;;;;;;;3.40;3.20;;;14.50;84.80;;;;;;5016310;28;20051;-64
2023/05/06 02:57:15;;;;;;;4.43;3.35;;;14.50;84.80;;;;;;5020740;28;20084;-64
2023/05/06 02:59:41;;;;;;;4.82;3.55;;;14.50;84.80;;;;;;5019466;28;20029;-64
2023/05/06 03:02:06;;;;;;;4.53;3.60;;;14.40;84.70;;;;;;5020456;28;20034;-64
2023/05/06 03:04:32;;;;;;;4.38;2.97;;;14.50;85.00;;;;;;5015015;28;20037;-64
2023/05/06 03:06:57;;;;;;;3.28;3.03;;;14.40;85.10;;;;;;5018450;28;20033;-64
2023/05/06 03:09:23;;;;;;;3.80;3.33;;;14.30;85.20;;;;;;5019778;28;20056;-64
2023/05/06 03:11:49;;;;;;;4.35;3.50;;;14.30;85.20;;;;;;5021935;28;20060;-64
2023/05/06 03:14:14;;;;;;;5.65;3.35;;;14.30;85.10;;;;;;5019364;28;20034;-64
2023/05/06 03:16:40;;;;;;;3.97;3.63;;;14.30;85.10;;;;;;5019176;28;20033;-64
2023/05/06 03:19:06;;;;;;;5.72;4.35;;;14.20;85.10;;;;;;5020506;28;20060;-64
2023/05/06 03:21:32;;;;;;;4.47;4.07;;;14.20;85.20;;;;;;5020159;28;20053;-64
2023/05/06 03:23:58;;;;;;;4.20;3.80;;;14.20;85.50;;;;;;5019078;28;20445;-64
2023/05/06 03:26:23;;;;;;;4.30;3.90;;;14.20;85.70;;;;;;5021079;28;20452;-64
2023/05/06 03:28:49;;;;;;;4.50;4.10;;;14.10;85.60;;;;;;5020439;28;20084;-64
2023/05/06 03:31:14;;;;;;;4.10;3.80;;;14.10;85.50;;;;;;5019565;28;20401;-64
2023/05/06 03:33:40;;;;;;;4.25;3.85;;;14.20;85.50;;;;;;5019907;28;20612;-64
2023/05/06 03:36:06;;;;;;;3.97;3.58;;;14.20;85.20;;;;;;5018482;28;20439;-64
2023/05/06 03:38:31;;;;;;;4.50;3.80;;;14.20;85.20;;;;;;5017357;28;20127;-65
2023/05/06 03:40:57;;;;;;;4.30;3.85;;;14.20;84.90;;;;;;5018933;28;20033;-64
2023/05/06 03:43:23;;;;;;;4.18;3.78;;;14.10;84.60;;;;;;5017671;28;20060;-64
2023/05/06 03:45:48;;;;;;;3.85;3.38;;;14.10;84.80;;;;;;5016744;28;20029;-64
2023/05/06 03:48:14;;;;;;;3.92;3.47;;;14.10;85.10;;;;;;5016893;28;20064;-64
2023/05/06 03:50:40;;;;;;;5.93;4.07;;;14.00;85.30;;;;;;5018648;28;20445;-64
2023/05/06 03:53:05;;;;;;;4.53;4.13;;;14.10;85.60;;;;;;5017976;28;20099;-64
2023/05/06 03:55:31;;;;;;;5.18;4.38;;;14.10;85.90;;;;;;5017568;28;20034;-65
2023/05/06 03:57:57;;;;;;;4.70;4.28;;;14.10;86.00;;;;;;5017067;28;20053;-64
2023/05/06 04:00:22;;;;;;;6.07;4.47;;;14.10;86.20;;;;;;5015124;28;20313;-64
2023/05/06 04:02:48;;;;;;;4.90;4.25;;;14.10;86.60;;;;;;5017368;28;20038;-64
2023/05/06 04:05:14;;;;;;;6.82;4.88;;;14.00;86.70;;;;;;5017692;28;20045;-64
2023/05/06 04:07:39;;;;;;;5.18;4.47;;;14.10;86.90;;;;;;5018407;28;20581;-64
2023/05/06 04:10:06;;;;;;;5.05;4.43;;;14.10;87.10;;;;;;5018354;28;20120;-64
2023/05/06 04:12:31;;;;;;;5.75;4.50;;;14.10;87.10;;;;;;5020655;28;20066;-64
2023/05/06 04:14:57;;;;;;;6.60;4.75;;;14.20;87.10;;;;;;5017134;28;20073;-64
2023/05/06 04:17:22;;;;;;;5.80;4.50;;;14.20;87.10;;;;;;5018200;28;20033;-64
2023/05/06 04:19:48;;;;;;;4.80;4.15;;;14.20;87.00;;;;;;5017516;28;20899;-64
2023/05/06 04:22:14;;;;;;;4.95;4.50;;;14.30;86.90;;;;;;5018239;28;20038;-62
2023/05/06 04:24:40;;;;;;;5.28;4.43;;;14.30;86.90;;;;;;5016022;28;20034;-64
2023/05/06 04:27:06;;;;;;;5.90;5.07;;;14.30;86.90;;;;;;5015706;28;20078;-64
2023/05/06 04:29:32;;;;;;;5.68;5.00;;;14.40;86.80;;;;;;5016804;28;21736;-64
2023/05/06 04:31:57;;;;;;;5.57;5.00;;;14.60;86.90;;;;;;5015438;28;20486;-64
2023/05/06 04:34:23;;;;;;;5.40;4.90;;;14.40;86.70;;;;;;5016154;28;20033;-64
2023/05/06 04:36:49;;;;;;;5.32;4.80;;;14.40;86.70;;;;;;5018375;28;20029;-64
2023/05/06 04:39:16;;;;;;;6.13;5.53;;;14.40;86.70;;;;;;5015262;28;20041;-64
2023/05/06 04:41:43;;;;;;;5.50;5.00;;;14.40;86.80;;;;;;5016853;28;20049;-64
2023/05/06 04:44:09;;;;;;;6.15;5.55;;;14.40;87.10;;;;;;5016742;28;20486;-64
2023/05/06 04:46:34;;;;;;;5.18;4.68;;;14.40;87.30;;;;;;5015352;28;20045;-64
2023/05/06 04:49:00;;;;;;;6.28;5.35;;;14.40;87.40;;;;;;5016767;28;20041;-64
2023/05/06 04:51:26;;;;;;;6.35;5.53;;;14.40;87.50;;;;;;5016969;28;20060;-64
2023/05/06 04:53:51;;;;;;;7.25;5.57;;;14.40;87.60;;;;;;5016240;28;20038;-64
2023/05/06 04:56:17;;;;;;;7.07;5.85;;;14.40;87.60;;;;;;5016404;28;20033;-64
2023/05/06 04:58:42;;;;;;;7.18;6.47;;;14.40;87.80;;;;;;5015165;28;20042;-64
2023/05/06 05:01:09;;;;;;;6.38;5.38;;;14.40;87.80;;;;;;5016455;28;20041;-64
2023/05/06 05:03:35;;;;;;;7.35;5.57;;;14.50;87.90;;;;;;5019379;28;20053;-63
2023/05/06 05:06:00;;;;;;;6.10;5.15;;;14.50;87.80;;;;;;5019273;28;20129;-64
2023/05/06 05:08:26;;;;;;;9.73;5.18;;;14.50;87.80;;;;;;5014986;28;20433;-64
2023/05/06 05:10:51;;;;;;;6.70;5.35;;;14.50;87.60;;;;;;5018919;28;20099;-64
2023/05/06 05:13:18;;;;;;;6.50;5.35;;;14.50;87.70;;;;;;5018193;28;20069;-64
2023/05/06 05:15:43;;;;;;;5.85;5.25;;;14.60;87.80;;;;;;5016868;28;20042;-64
2023/05/06 05:18:09;;;;;;;5.95;5.35;;;14.60;87.80;;;;;;5018152;28;20404;-64
2023/05/06 05:20:34;;;;;;;6.70;5.20;;;14.60;87.80;;;;;;5016320;28;20029;-64
2023/05/06 05:23:00;;;;;;;5.93;5.43;;;14.60;87.90;;;;;;5018564;28;20072;-64
2023/05/06 05:25:26;;;;;;;6.45;5.40;;;14.70;88.00;;;;;;5015462;28;20405;-64
2023/05/06 05:27:51;;;;;;;6.75;5.78;;;14.70;88.00;;;;;;5017404;28;20033;-64
2023/05/06 05:30:17;;;;;;;6.32;5.57;;;14.70;88.10;;;;;;5017961;28;20116;-63
2023/05/06 05:32:43;;;;;;;6.60;5.90;;;14.70;88.10;;;;;;5017616;28;20029;-64
2023/05/06 05:35:11;;;;;;;7.38;5.93;;;14.80;88.30;;;;;;5017635;28;20034;-64
2023/05/06 05:37:37;;;;;;;6.22;5.55;;;14.80;88.40;;;;;;5016402;28;20037;-64
2023/05/06 05:40:03;;;;;;;5.90;5.40;;;14.90;88.60;;;;;;5012738;28;20390;-64
2023/05/06 05:42:32;;;;;;;5.65;5.15;;;14.90;88.60;;;;;;5016760;28;20062;-63
2023/05/06 05:44:58;;;;;;;7.28;5.85;;;14.90;88.60;;;;;;5004029;28;20052;-63
2023/05/06 05:47:24;;;;;;;6.10;5.50;;;14.90;88.50;;;;;;5014075;28;20404;-64
2023/05/06 05:49:50;;;;;;;5.50;5.00;;;15.00;88.60;;;;;;5010201;28;20047;-64
2023/05/06 05:52:16;;;;;;;5.95;5.20;;;15.10;88.60;;;;;;5014794;28;20041;-64
2023/05/06 05:54:41;;;;;;;5.45;4.97;;;15.10;88.60;;;;;;5014510;28;20125;-64
2023/05/06 05:57:07;;;;;;;5.70;5.13;;;15.20;88.60;;;;;;5017847;28;20041;-64
2023/05/06 05:59:32;;;;;;;5.15;4.75;;;15.20;88.30;;;;;;5007309;28;20125;-64
2023/05/06 06:01:58;;;;;;;5.25;4.75;;;15.20;88.20;;;;;;5007804;28;20148;-64
2023/05/06 06:04:24;;;;;;;5.65;4.60;;;15.30;88.20;;;;;;5013167;28;20084;-64
2023/05/06 06:06:50;;;;;;;5.82;5.07;;;15.30;88.10;;;;;;5014153;28;20045;-63
2023/05/06 06:09:16;;;;;;;5.05;4.65;;;15.30;88.20;;;;;;5012361;28;20533;-64
2023/05/06 06:11:41;;;;;;;5.22;4.72;;;15.30;88.10;;;;;;5013173;28;20029;-64
2023/05/06 06:14:07;;;;;;;5.53;4.68;;;15.30;88.10;;;;;;5011279;28;20464;-64
2023/05/06 06:16:35;;;;;;;5.95;5.03;;;15.30;88.20;;;;;;5007990;28;20026;-64
2023/05/06 06:21:36;;;;;;;6.95;4.85;;;15.30;88.60;;;;;;5675856;22;20155;-64
2023/05/06 06:24:01;;;;;;;5.15;4.68;;;15.40;88.80;;;;;;5035549;28;20180;-64
2023/05/06 06:26:27;;;;;;;5.10;4.60;;;15.40;88.70;;;;;;5028567;28;20041;-65
2023/05/06 06:28:52;;;;;;;4.80;4.40;;;15.40;88.80;;;;;;5033450;28;20041;-64
2023/05/06 06:31:18;;;;;;;4.63;4.20;;;15.40;88.90;;;;;;5027743;28;20566;-64
2023/05/06 06:33:43;;;;;;;5.13;4.53;;;15.50;88.90;;;;;;5025380;28;20468;-64
2023/05/06 06:36:10;;;;;;;4.78;4.03;;;15.50;88.80;;;;;;5023664;28;20042;-65
2023/05/06 06:38:36;;;;;;;5.07;4.57;;;15.50;88.80;;;;;;5025104;28;20084;-64
2023/05/06 06:41:01;;;;;;;4.15;3.75;;;15.60;89.00;;;;;;5024280;28;20064;-64
2023/05/06 06:43:27;;;;;;;4.00;3.60;;;15.60;88.70;;;;;;5025665;28;20045;-62
2023/05/06 06:45:52;;;;;;;3.75;3.45;;;15.60;88.20;;;;;;5018116;28;20037;-64
2023/05/06 06:48:18;;;;;;;3.58;3.28;;;15.70;87.60;;;;;;5032687;28;20041;-63
2023/05/06 06:50:44;;;;;;;3.60;3.25;;;15.70;87.40;;;;;;5024984;28;20064;-65
2023/05/06 06:53:10;;;;;;;3.58;3.30;;;15.70;87.00;;;;;;5019883;28;20516;-64
2023/05/06 06:55:35;;;;;;;3.70;3.40;;;15.70;86.90;;;;;;5025762;28;20044;-65
2023/05/06 06:58:02;;;;;;;3.33;3.13;;;15.80;86.90;;;;;;5025802;28;20513;-64
2023/05/06 07:00:27;;;;;;;4.30;3.47;;;15.80;86.60;;;;;;5027813;28;20120;-64
2023/05/06 07:02:53;;;;;;;3.75;3.38;;;15.80;86.70;;;;;;5028973;28;20071;-64
2023/05/06 07:05:19;;;;;;;3.75;3.35;;;15.80;86.40;;;;;;5028831;28;20068;-64
2023/05/06 07:07:44;;;;;;;3.65;3.35;;;15.80;85.90;;;;;;5028330;28;20055;-64
2023/05/06 07:10:10;;;;;;;5.20;3.10;;;15.90;85.50;;;;;;5022310;28;20041;-64
2023/05/06 07:12:36;;;;;;;4.35;3.33;;;16.00;85.30;;;;;;5011595;28;20524;-64
2023/05/06 07:15:05;;;;;;;3.33;3.10;;;16.00;85.20;;;;;;5014702;28;20038;-64
2023/05/06 07:17:31;;;;;;;3.72;3.20;;;16.10;85.20;;;;;;5014833;28;20526;-64
2023/05/06 07:19:57;;;;;;;3.28;2.97;;;16.10;85.00;;;;;;5014120;28;20029;-64
2023/05/06 07:22:22;;;;;;;3.58;3.13;;;16.20;85.00;;;;;;5012793;28;20080;-64
2023/05/06 07:24:48;;;;;;;3.58;3.28;;;16.30;84.80;;;;;;5014462;28;20079;-65
2023/05/06 07:27:13;;;;;;;3.17;2.97;;;16.30;84.60;;;;;;5013789;28;20079;-65
2023/05/06 07:29:40;;;;;;;3.42;3.13;;;16.40;84.40;;;;;;5012674;28;20026;-65
2023/05/06 07:32:05;;;;;;;3.95;3.38;;;16.50;83.90;;;;;;5012945;28;20029;-65
2023/05/06 07:34:32;;;;;;;3.50;3.15;;;16.60;83.90;;;;;;5012530;28;20033;-64
2023/05/06 07:36:58;;;;;;;3.13;2.70;;;16.60;83.90;;;;;;5011315;28;20026;-65
2023/05/06 07:39:24;;;;;;;3.33;3.03;;;16.70;83.60;;;;;;5016687;28;20516;-64
2023/05/06 07:41:50;;;;;;;3.30;3.00;;;16.80;83.60;;;;;;5016482;28;20523;-64
2023/05/06 07:44:16;;;;;;;3.47;3.17;;;16.90;83.40;;;;;;5019547;28;20125;-67
2023/05/06 07:46:41;;;;;;;2.60;2.40;;;17.00;84.10;;;;;;5019494;28;20048;-64
2023/05/06 07:49:07;;;;;;;3.10;2.80;;;17.00;82.20;;;;;;5018878;28;20125;-65
2023/05/06 07:51:33;;;;;;;3.10;2.90;;;17.10;81.60;;;;;;5019707;28;20479;-65
2023/05/06 07:53:58;;;;;;;4.68;3.00;;;17.20;81.20;;;;;;5018297;28;20045;-65
2023/05/06 07:56:24;;;;;;;3.10;2.80;;;17.20;80.60;;;;;;5019708;28;20551;-65
2023/05/06 07:58:49;;;;;;;3.08;2.78;;;17.30;80.30;;;;;;5018303;28;20036;-65
2023/05/06 08:01:15;;;;;;;3.30;3.00;;;17.30;79.80;;;;;;5020303;28;20041;-65
2023/05/06 08:03:40;;;;;;;3.05;2.78;;;17.30;80.10;;;;;;5016245;28;20041;-65
2023/05/06 08:06:06;;;;;;;2.85;2.65;;;17.30;80.30;;;;;;5018883;28;20053;-65
2023/05/06 08:08:32;;;;;;;2.80;2.60;;;17.40;80.50;;;;;;5011436;28;20515;-65
2023/05/06 08:10:58;;;;;;;3.08;2.70;;;17.40;79.80;;;;;;5013118;28;20049;-66
2023/05/06 08:13:25;;;;;;;3.35;2.83;;;17.50;79.70;;;;;;5017304;28;20532;-64
2023/05/06 08:15:51;;;;;;;3.50;2.80;;;17.50;80.30;;;;;;5017961;28;20033;-65
2023/05/06 08:18:16;;;;;;;3.35;3.05;;;17.50;80.10;;;;;;5018099;28;20050;-65
2023/05/06 08:20:42;;;;;;;4.95;3.20;;;17.50;80.10;;;;;;5014969;28;20120;-65
2023/05/06 08:23:08;;;;;;;3.55;3.13;;;17.60;80.70;;;;;;5019639;28;20038;-65
2023/05/06 08:25:33;;;;;;;4.20;3.55;;;17.70;80.00;;;;;;5019001;28;20037;-64
2023/05/06 08:27:59;;;;;;;3.72;3.42;;;17.70;79.60;;;;;;5019659;28;20084;-65
2023/05/06 08:30:24;;;;;;;3.08;2.85;;;17.80;79.60;;;;;;5018060;28;20038;-65
2023/05/06 08:32:51;;;;;;;3.17;2.88;;;17.80;80.00;;;;;;5019565;28;20045;-65
2023/05/06 08:35:17;;;;;;;3.25;2.90;;;17.90;80.10;;;;;;5020144;28;20046;-66
2023/05/06 08:37:42;;;;;;;4.95;3.22;;;18.00;80.80;;;;;;5013780;28;20030;-65
2023/05/06 08:40:18;;;;;;;2.88;2.63;;;18.10;79.70;;;;;;5013140;28;20037;-66
2023/05/06 08:42:49;;;;;;;2.85;2.65;;;18.20;78.80;;;;;;5013463;28;20037;-66
2023/05/06 08:45:16;;;;;;;4.65;3.08;;;18.30;79.00;;;;;;5014042;28;20054;-65
2023/05/06 08:47:42;;;;;;;3.33;2.70;;;18.40;78.40;;;;;;5017390;28;20087;-65
2023/05/06 08:50:09;;;;;;;3.00;2.80;;;18.50;77.70;;;;;;5017029;28;20666;-64
2023/05/06 08:52:36;;;;;;;2.28;2.08;;;18.60;77.20;;;;;;5014728;28;20065;-65
2023/05/06 08:55:04;;;;;;;3.15;2.60;;;18.60;76.50;;;;;;5015153;28;20041;-64
2023/05/06 08:57:30;;;;;;;2.67;2.47;;;18.70;77.00;;;;;;5015499;28;20064;-64
2023/05/06 08:59:56;;;;;;;2.50;2.30;;;18.60;75.80;;;;;;5012987;28;21088;-64
2023/05/06 09:02:23;;;;;;;2.60;2.40;;;18.60;75.40;;;;;;5015578;28;20033;-64
2023/05/06 09:04:49;;;;;;;2.50;2.20;;;18.60;75.10;;;;;;5012527;28;20095;-67
2023/05/06 09:07:14;;;;;;;2.47;2.25;;;18.60;75.80;;;;;;5013550;28;20540;-65
2023/05/06 09:09:40;;;;;;;2.55;2.35;;;18.60;74.70;;;;;;5012219;28;20108;-64
2023/05/06 09:12:14;;;;;;;2.65;2.45;;;18.60;74.60;;;;;;5021419;28;20650;-64
2023/05/06 09:14:45;;;;;;;2.63;2.42;;;18.50;74.70;;;;;;5021664;28;20065;-64
2023/05/06 09:17:25;;;;;;;8.63;2.70;;;18.50;75.40;;;;;;5023178;28;20083;-64
2023/05/06 09:19:52;;;;;;;6.97;2.13;;;18.60;75.80;;;;;;5027156;28;20029;-65
2023/05/06 09:22:21;;;;;;;2.03;1.90;;;18.70;75.90;;;;;;5026628;28;20049;-66
2023/05/06 09:24:55;;;;;;;2.50;2.00;;;18.70;73.70;;;;;;5033635;28;20499;-64
2023/05/06 09:27:21;;;;;;;2.60;2.40;;;18.80;73.60;;;;;;5033766;28;20037;-64
2023/05/06 09:30:05;;;;;;;2.70;2.28;;;18.80;73.60;;;;;;5034083;28;20098;-64
2023/05/06 09:32:32;;;;;;;2.50;2.30;;;18.80;73.00;;;;;;5034096;28;20038;-64
2023/05/06 09:34:58;;;;;;;2.20;2.10;;;18.90;74.10;;;;;;5034958;28;20025;-64
2023/05/06 09:37:27;;;;;;;2.13;2.00;;;18.90;74.00;;;;;;5031660;28;20034;-66
2023/05/06 09:39:54;;;;;;;2.47;2.35;;;18.90;74.00;;;;;;5032776;28;20051;-64
2023/05/06 09:42:25;;;;;;;2.42;2.17;;;19.00;73.70;;;;;;5032337;28;20072;-64
2023/05/06 09:44:55;;;;;;;2.42;2.22;;;19.10;73.50;;;;;;5032258;28;20037;-64
2023/05/06 09:47:23;;;;;;;2.67;2.13;;;19.20;73.20;;;;;;5032178;28;20033;-65
2023/05/06 09:49:49;;;;;;;2.28;1.90;;;19.20;73.40;;;;;;5033136;28;20029;-64
2023/05/06 09:52:15;;;;;;;4.00;2.40;;;19.30;73.20;;;;;;5030074;28;20044;-66
2023/05/06 09:54:40;;;;;;;2.60;2.40;;;19.40;73.80;;;;;;5027662;28;20037;-65
2023/05/06 09:57:08;;;;;;;2.60;2.40;;;19.50;72.30;;;;;;5032955;28;20290;-65
2023/05/06 09:59:34;;;;;;;2.30;2.20;;;19.60;72.30;;;;;;5033592;28;20025;-65
2023/05/06 10:02:01;;;;;;;2.45;2.35;;;19.70;71.60;;;;;;5033805;28;20064;-65
2023/05/06 10:04:29;;;;;;;2.97;2.30;;;19.70;70.60;;;;;;5030783;28;20046;-65
2023/05/06 10:06:56;;;;;;;2.35;2.13;;;19.70;70.20;;;;;;5034332;28;20041;-64
2023/05/06 10:09:26;;;;;;;3.33;2.08;;;19.70;70.50;;;;;;5034181;28;20033;-65
2023/05/06 10:11:53;;;;;;;2.78;2.20;;;19.70;70.10;;;;;;5029975;28;20459;-65
2023/05/06 10:14:19;;;;;;;1.58;1.40;;;19.70;70.70;;;;;;5034665;28;20934;-65
2023/05/06 10:16:48;;;;;;;2.13;1.73;;;19.70;70.20;;;;;;5021489;28;20034;-65
2023/05/06 10:19:17;;;;;;;2.78;1.60;;;19.80;70.40;;;;;;5029012;28;20045;-64
2023/05/06 10:21:50;;;;;;;2.03;1.65;;;19.80;70.80;;;;;;5026671;28;20114;-66
2023/05/06 10:24:22;;;;;;;1.98;1.58;;;19.90;70.60;;;;;;5027624;28;20128;-65
2023/05/06 10:26:49;;;;;;;1.70;1.60;;;20.00;70.40;;;;;;5031566;28;20041;-65
2023/05/06 10:29:16;;;;;;;1.90;1.70;;;20.00;70.20;;;;;;5030104;28;20033;-64
2023/05/06 10:31:51;;;;;;;2.00;1.58;;;20.10;69.50;;;;;;5031978;28;20062;-64
2023/05/06 10:34:20;;;;;;;1.67;1.58;;;20.20;69.30;;;;;;5031937;28;20069;-64
2023/05/06 10:36:49;;;;;;;1.67;1.55;;;20.30;69.50;;;;;;5029379;28;20496;-64
2023/05/06 10:39:15;;;;;;;1.52;1.10;;;20.40;69.30;;;;;;5027624;28;20455;-66
2023/05/06 10:41:41;;;;;;;1.65;1.27;;;20.50;69.10;;;;;;5029960;28;20056;-65
2023/05/06 10:44:08;;;;;;;1.88;1.20;;;20.50;69.00;;;;;;5032008;28;20511;-65
2023/05/06 10:47:01;;;;;;;1.75;1.27;;;20.50;68.50;;;;;;5032446;28;20053;-65
2023/05/06 10:49:27;;;;;;;2.15;1.17;;;20.60;67.40;;;;;;5031891;28;20037;-66
2023/05/06 10:52:42;;;;;;;1.92;1.30;;;20.70;67.90;;;;;;5030456;28;20036;-65
2023/05/06 10:55:34;;;;;;;0.93;0.70;;;20.70;65.40;;;;;;5022007;28;20045;-65
2023/05/06 10:58:11;;;;;;;1.42;1.00;;;20.70;64.50;;;;;;5032453;28;20120;-65
2023/05/06 11:00:37;;;;;;;1.00;0.70;;;20.70;65.40;;;;;;5032476;28;20044;-65
2023/05/06 11:03:12;;;;;;;1.55;0.77;;;20.80;66.00;;;;;;5033615;28;20040;-65
2023/05/06 11:05:49;;;;;;;1.15;0.70;;;20.80;65.10;;;;;;5032795;28;20057;-65
2023/05/06 11:08:21;;;;;;;3.10;0.75;;;20.90;64.70;;;;;;5033244;28;20509;-65
2023/05/06 11:10:47;;;;;;;0.82;0.60;;;20.90;64.70;;;;;;5030799;28;20037;-65
2023/05/06 11:13:21;;;;;;;1.67;0.57;;;21.00;64.40;;;;;;5032340;28;20091;-65
2023/05/06 11:15:50;;;;;;;0.77;0.55;;;21.10;63.30;;;;;;5031955;28;20037;-65
2023/05/06 11:18:32;;;;;;;0.50;0.43;;;21.10;63.70;;;;;;5035353;28;20045;-65
2023/05/06 11:21:03;;;;;;;0.95;0.70;;;21.10;62.40;;;;;;5037140;28;20415;-65
2023/05/06 11:23:42;;;;;;;1.30;0.70;;;21.20;62.90;;;;;;5034203;28;20046;-65
2023/05/06 11:26:14;;;;;;;2.03;0.88;;;21.30;62.20;;;;;;5034959;28;20566;-65
2023/05/06 11:28:46;;;;;;;1.05;0.80;;;21.30;62.10;;;;;;5038062;28;20057;-65
2023/05/06 11:31:13;;;;;;;2.25;0.95;;;21.40;62.00;;;;;;5036717;28;20037;-65
2023/05/06 11:33:45;;;;;;;1.75;0.75;;;21.40;61.10;;;;;;5037772;28;20500;-64
2023/05/06 11:36:16;;;;;;;0.95;0.50;;;21.30;60.10;;;;;;5037273;28;20118;-65
2023/05/06 11:38:43;;;;;;;0.55;0.55;;;21.30;59.40;;;;;;5035257;28;20036;-64
2023/05/06 11:41:10;;;;;;;0.90;0.50;;;21.20;60.10;;;;;;5037386;28;20079;-65
2023/05/06 11:43:35;;;;;;;0.77;0.77;;;21.20;61.70;;;;;;5037189;28;20037;-64
2023/05/06 11:46:01;;;;;;;2.65;0.90;;;21.10;60.50;;;;;;5038158;28;20514;-65
2023/05/06 11:48:27;;;;;;;1.10;0.60;;;21.10;61.90;;;;;;5037939;28;20060;-65
2023/05/06 11:50:54;;;;;;;1.05;0.70;;;21.10;61.70;;;;;;5036897;28;20451;-66
2023/05/06 11:53:22;;;;;;;1.45;0.75;;;21.20;62.50;;;;;;5036343;28;20504;-65
2023/05/06 11:55:50;;;;;;;1.33;0.60;;;21.30;62.70;;;;;;5036104;28;20044;-66
2023/05/06 11:58:27;;;;;;;0.77;0.60;;;21.30;61.90;;;;;;5034920;28;20037;-66
2023/05/06 12:01:03;;;;;;;1.00;0.60;;;21.50;61.90;;;;;;5034939;28;20397;-66
2023/05/06 12:03:30;;;;;;;1.25;0.60;;;21.50;61.30;;;;;;5033017;28;20562;-66
2023/05/06 12:05:57;;;;;;;1.20;0.73;;;21.60;61.30;;;;;;5035095;28;20025;-65
2023/05/06 12:08:25;;;;;;;1.20;0.60;;;21.70;61.90;;;;;;5033039;28;20508;-65
2023/05/06 12:10:53;;;;;;;0.82;0.63;;;21.80;61.50;;;;;;5033594;28;20937;-65
2023/05/06 12:13:19;;;;;;;0.60;0.60;;;21.90;61.30;;;;;;5035596;28;20404;-65
2023/05/06 12:15:46;;;;;;;0.88;0.50;;;22.00;61.00;;;;;;5036442;28;20025;-65
2023/05/06 12:18:12;;;;;;;1.00;0.60;;;22.10;59.60;;;;;;5034048;28;20496;-66
2023/05/06 12:20:37;;;;;;;0.77;0.65;;;22.10;59.10;;;;;;5033386;28;20034;-65
2023/05/06 12:23:10;;;;;;;1.20;0.77;;;22.20;59.90;;;;;;5034952;28;20041;-67
2023/05/06 12:25:36;;;;;;;4.28;0.82;;;22.20;59.60;;;;;;5036228;28;20095;-65
2023/05/06 12:28:16;;;;;;;0.55;0.55;;;22.20;59.70;;;;;;5033302;28;20444;-67
2023/05/06 12:30:41;;;;;;;3.45;0.70;;;22.30;58.80;;;;;;5036147;28;20032;-65
2023/05/06 12:33:08;;;;;;;1.58;0.85;;;22.30;59.60;;;;;;5035088;28;20034;-65
2023/05/06 12:35:34;;;;;;;0.70;0.70;;;22.30;59.60;;;;;;5033036;28;20037;-65
2023/05/06 12:38:13;;;;;;;1.15;0.63;;;22.30;59.50;;;;;;5034238;28;20037;-66
2023/05/06 12:40:40;;;;;;;0.70;0.60;;;22.40;58.90;;;;;;5034054;28;20029;-65
2023/05/06 12:43:07;;;;;;;0.60;0.57;;;22.40;59.50;;;;;;5036657;28;20558;-65
2023/05/06 12:45:32;;;;;;;1.30;0.68;;;22.50;59.30;;;;;;5036616;28;20026;-66
2023/05/06 12:48:02;;;;;;;0.52;0.52;;;22.50;59.10;;;;;;5037341;28;20447;-64
2023/05/06 12:50:32;;;;;;;0.85;0.55;;;22.50;58.30;;;;;;5034671;28;20492;-65
2023/05/06 12:52:57;;;;;;;2.42;0.85;;;22.60;58.40;;;;;;5034899;28;20029;-65